Time;durP1;ratioP1;P1;durP2;ratioP2;P2;SDS_P1;SDS_P2;PMS_P1;PMS_P2;Temp;Humidity;BMP_temperature;BMP_pressure;BME280_temperature;BME280_humidity;BME280_pressure;Samples;Min_cycle;Max_cycle;Signal;HPM_P1;HPM_P2
2022/08/18 00:02:14;;;;;;;;;;;20.10;99.90;;;;;;5052199;28;20045;-45
2022/08/18 00:04:41;;;;;;;9.18;5.15;;;20.00;99.90;;;;;;5052726;28;19967;-46
2022/08/18 00:07:25;;;;;;;9.27;5.10;;;19.80;99.90;;;;;;5053198;28;20052;-46
2022/08/18 00:09:52;;;;;;;6.20;5.07;;;19.70;99.90;;;;;;5048568;28;20045;-45
2022/08/18 00:12:25;;;;;;;7.43;5.35;;;19.70;99.90;;;;;;5051119;28;20489;-45
2022/08/18 00:14:53;;;;;;;7.75;5.28;;;19.80;99.90;;;;;;5051956;28;20036;-45
2022/08/18 00:17:20;;;;;;;6.47;5.35;;;20.00;99.90;;;;;;5053053;28;20045;-46
2022/08/18 00:19:47;;;;;;;6.85;5.38;;;20.00;99.90;;;;;;5051602;28;20041;-46
2022/08/18 00:22:18;;;;;;;;;;;20.00;99.90;;;;;;5053001;28;20051;-46
2022/08/18 00:24:47;;;;;;;9.35;5.47;;;19.90;99.90;;;;;;5052284;28;19924;-45
2022/08/18 00:27:30;;;;;;;7.90;5.78;;;19.80;99.90;;;;;;5052521;28;20392;-47
2022/08/18 00:30:00;;;;;;;7.18;5.63;;;19.90;99.90;;;;;;5055086;28;20048;-45
2022/08/18 00:32:33;;;;;;;9.10;5.72;;;20.00;99.90;;;;;;5051900;28;20044;-45
2022/08/18 00:35:07;;;;;;;8.68;5.25;;;20.10;99.90;;;;;;5051669;28;20041;-45
2022/08/18 00:37:35;;;;;;;13.98;5.97;;;20.10;99.90;;;;;;5051240;28;20045;-45
2022/08/18 00:40:03;;;;;;;7.10;5.03;;;20.10;99.90;;;;;;5052460;28;20052;-46
2022/08/18 00:42:30;;;;;;;8.30;5.55;;;20.20;99.90;;;;;;5062885;22;20061;-46
2022/08/18 00:45:01;;;;;;;10.57;5.18;;;20.20;99.90;;;;;;5038138;28;20048;-47
2022/08/18 00:47:29;;;;;;;8.93;5.15;;;20.30;99.90;;;;;;5046820;28;20037;-47
2022/08/18 00:50:12;;;;;;;6.97;5.35;;;20.40;99.90;;;;;;5032620;28;20680;-46
2022/08/18 00:52:46;;;;;;;12.93;5.78;;;20.30;99.90;;;;;;5031201;28;20080;-47
2022/08/18 00:55:14;;;;;;;12.18;5.05;;;20.40;99.90;;;;;;5018684;28;20041;-46
2022/08/18 00:57:42;;;;;;;10.98;5.28;;;20.50;99.90;;;;;;5005748;28;20118;-46
2022/08/18 01:00:11;;;;;;;8.13;5.10;;;20.40;99.90;;;;;;5028719;28;20405;-46
2022/08/18 01:02:44;;;;;;;8.40;5.00;;;20.30;99.90;;;;;;5018991;28;20057;-47
2022/08/18 01:05:41;;;;;;;13.10;5.03;;;20.30;99.90;;;;;;5011412;28;20034;-46
2022/08/18 01:08:13;;;;;;;8.20;5.32;;;20.20;99.90;;;;;;4994962;28;20038;-46
2022/08/18 01:10:40;;;;;;;8.48;5.38;;;20.10;99.90;;;;;;5024129;28;20132;-46
2022/08/18 01:13:08;;;;;;;12.65;5.60;;;20.00;99.90;;;;;;5021056;28;20429;-46
2022/08/18 01:15:35;;;;;;;8.68;5.22;;;20.10;99.90;;;;;;5012678;28;20042;-46
2022/08/18 01:24:10;;;;;;;8.38;5.18;;;19.90;99.90;;;;;;5011850;28;20056;-46
2022/08/18 01:26:48;;;;;;;8.25;5.38;;;19.90;99.90;;;;;;5010643;28;20042;-46
2022/08/18 01:29:17;;;;;;;5.40;4.30;;;19.80;99.90;;;;;;5012272;28;20042;-48
2022/08/18 01:31:50;;;;;;;6.03;4.70;;;19.80;99.90;;;;;;5011725;28;20496;-47
2022/08/18 01:34:23;;;;;;;10.30;5.28;;;19.70;99.90;;;;;;5011020;28;20042;-46
2022/08/18 01:36:52;;;;;;;7.15;4.75;;;19.80;99.90;;;;;;5018559;28;20077;-47
2022/08/18 01:39:21;;;;;;;6.05;4.85;;;19.70;99.90;;;;;;5013533;28;20069;-46
2022/08/18 01:42:08;;;;;;;7.60;5.43;;;19.70;99.90;;;;;;5010442;28;20045;-46
2022/08/18 01:44:35;;;;;;;;;;;19.70;99.90;;;;;;5010921;28;20132;-47
2022/08/18 01:47:02;;;;;;;6.47;4.97;;;19.70;99.90;;;;;;5019884;28;19928;-46
2022/08/18 01:49:29;;;;;;;;;;;19.70;99.90;;;;;;5011450;28;20034;-47
2022/08/18 01:51:55;;;;;;;8.55;4.97;;;19.70;99.90;;;;;;5012942;28;19921;-46
2022/08/18 01:54:22;;;;;;;9.00;4.72;;;19.60;99.90;;;;;;5010874;28;20106;-46
2022/08/18 01:56:51;;;;;;;7.40;5.38;;;19.50;99.90;;;;;;5011505;28;20049;-46
2022/08/18 01:59:18;;;;;;;9.35;5.40;;;19.40;99.90;;;;;;5003270;28;20057;-46
2022/08/18 02:01:46;;;;;;;6.30;5.20;;;19.30;99.90;;;;;;5003355;28;20042;-46
2022/08/18 02:04:23;;;;;;;7.85;5.35;;;19.30;99.90;;;;;;5017611;28;20046;-46
2022/08/18 02:07:07;;;;;;;8.43;4.90;;;19.30;99.90;;;;;;5011494;28;20130;-46
2022/08/18 02:09:36;;;;;;;9.68;5.20;;;19.20;99.90;;;;;;5012278;28;20030;-46
2022/08/18 02:12:05;;;;;;;7.88;5.18;;;19.10;99.90;;;;;;5011325;28;20117;-47
2022/08/18 02:14:34;;;;;;;7.63;5.47;;;19.00;99.90;;;;;;5010548;28;20432;-47
2022/08/18 02:17:03;;;;;;;8.02;5.65;;;18.90;99.90;;;;;;5011327;28;20049;-47
2022/08/18 02:19:37;;;;;;;7.97;5.85;;;18.90;99.90;;;;;;5010572;28;20497;-46
2022/08/18 02:22:05;;;;;;;7.45;5.00;;;18.80;99.90;;;;;;5011404;28;20058;-46
2022/08/18 02:24:31;;;;;;;8.38;5.35;;;18.80;99.90;;;;;;5010635;28;20042;-46
2022/08/18 02:26:59;;;;;;;8.23;5.80;;;18.70;99.90;;;;;;5011094;28;20053;-46
2022/08/18 02:29:26;;;;;;;7.65;5.78;;;18.70;99.90;;;;;;5011518;28;20104;-46
2022/08/18 02:31:52;;;;;;;10.90;6.05;;;18.60;99.90;;;;;;5010394;28;20479;-46
2022/08/18 02:34:19;;;;;;;9.75;5.95;;;18.60;99.90;;;;;;5010883;28;20579;-46
2022/08/18 02:36:46;;;;;;;6.57;5.25;;;18.40;99.90;;;;;;5010952;28;20057;-47
2022/08/18 02:39:14;;;;;;;7.65;5.95;;;18.40;99.90;;;;;;5014545;28;20053;-46
2022/08/18 02:41:40;;;;;;;8.52;5.80;;;18.30;99.90;;;;;;5014056;28;20049;-46
2022/08/18 02:44:08;;;;;;;8.02;5.07;;;18.20;99.90;;;;;;5014649;28;20037;-47
2022/08/18 02:46:35;;;;;;;;;;;18.30;99.90;;;;;;5015305;28;20050;-46
2022/08/18 02:49:04;;;;;;;7.78;5.03;;;18.20;99.90;;;;;;5014665;28;19993;-46
2022/08/18 02:51:31;;;;;;;7.47;5.40;;;18.20;99.90;;;;;;5014943;28;20038;-46
2022/08/18 02:53:58;;;;;;;8.27;5.78;;;18.30;99.90;;;;;;5014217;28;20061;-46
2022/08/18 02:56:27;;;;;;;;;;;18.30;99.90;;;;;;5015540;28;20490;-46
2022/08/18 02:59:12;;;;;;;9.80;6.18;;;18.30;99.90;;;;;;5013886;28;19928;-47
2022/08/18 03:01:42;;;;;;;10.25;5.53;;;18.20;99.90;;;;;;5014642;28;20049;-46
2022/08/18 03:04:11;;;;;;;10.68;5.85;;;18.20;99.90;;;;;;5014149;28;20092;-46
2022/08/18 03:06:39;;;;;;;6.85;5.50;;;18.20;99.90;;;;;;5014839;28;20060;-46
2022/08/18 03:09:09;;;;;;;8.38;5.70;;;18.10;99.90;;;;;;5020706;28;20045;-47
2022/08/18 03:11:36;;;;;;;8.13;5.70;;;18.20;99.90;;;;;;5014433;28;20406;-47
2022/08/18 03:14:04;;;;;;;11.60;6.03;;;18.10;99.90;;;;;;5014043;28;20410;-46
2022/08/18 03:16:37;;;;;;;9.45;5.35;;;18.10;99.90;;;;;;5015848;28;20083;-46
2022/08/18 03:19:04;;;;;;;8.88;6.15;;;18.00;99.90;;;;;;5018246;28;20677;-46
2022/08/18 03:21:34;;;;;;;7.70;5.43;;;18.10;99.90;;;;;;5014116;28;20045;-46
2022/08/18 03:24:03;;;;;;;8.63;6.00;;;18.00;99.90;;;;;;5012958;28;20453;-46
2022/08/18 03:26:40;;;;;;;8.98;5.68;;;18.00;99.90;;;;;;5006940;28;20034;-46
2022/08/18 03:29:07;;;;;;;8.27;5.65;;;18.00;99.90;;;;;;5013177;28;20049;-46
2022/08/18 03:31:36;;;;;;;8.57;5.57;;;18.00;99.90;;;;;;5000510;28;20087;-46
2022/08/18 03:34:05;;;;;;;9.70;5.90;;;18.00;99.90;;;;;;5006971;28;20049;-46
2022/08/18 03:36:34;;;;;;;8.90;5.82;;;18.00;99.90;;;;;;5013737;28;20416;-46
2022/08/18 03:39:03;;;;;;;10.52;5.85;;;18.00;99.90;;;;;;5013434;28;20052;-46
2022/08/18 03:41:30;;;;;;;11.60;6.13;;;17.90;99.90;;;;;;4994706;28;20134;-47
2022/08/18 03:44:17;;;;;;;10.18;6.13;;;17.80;99.90;;;;;;5010367;28;20050;-46
2022/08/18 03:46:44;;;;;;;9.07;5.78;;;17.60;99.90;;;;;;4996180;28;20054;-46
2022/08/18 03:49:11;;;;;;;10.15;6.35;;;17.50;99.90;;;;;;5012737;28;20049;-48
2022/08/18 03:51:42;;;;;;;;;;;17.50;99.90;;;;;;5000348;28;20046;-46
2022/08/18 03:54:09;;;;;;;8.07;5.72;;;17.50;99.90;;;;;;5013035;28;19921;-47
2022/08/18 03:56:38;;;;;;;8.18;5.90;;;17.50;99.90;;;;;;5006226;28;20506;-46
2022/08/18 03:59:09;;;;;;;10.10;6.90;;;17.50;99.90;;;;;;5013335;28;20096;-46
2022/08/18 04:01:38;;;;;;;8.95;5.70;;;17.50;99.90;;;;;;5011475;28;20391;-46
2022/08/18 04:04:08;;;;;;;8.52;5.78;;;17.60;99.90;;;;;;5013025;28;20684;-48
2022/08/18 04:06:52;;;;;;;7.88;5.80;;;17.60;99.90;;;;;;5000878;28;20058;-48
2022/08/18 04:09:21;;;;;;;10.70;5.63;;;17.70;99.90;;;;;;5005633;28;20034;-46
2022/08/18 04:11:47;;;;;;;10.13;6.30;;;17.80;99.90;;;;;;5011812;28;20045;-46
2022/08/18 04:14:17;;;;;;;;;;;17.90;99.90;;;;;;4995578;28;20042;-47
2022/08/18 04:16:44;;;;;;;9.68;6.53;;;17.90;99.90;;;;;;5005802;28;19929;-46
2022/08/18 04:19:12;;;;;;;11.18;6.47;;;17.90;99.90;;;;;;5010487;28;20042;-48
2022/08/18 04:21:41;;;;;;;8.35;6.53;;;17.90;99.90;;;;;;5007662;28;20129;-48
2022/08/18 04:24:09;;;;;;;8.25;6.35;;;17.80;99.90;;;;;;5003717;28;20038;-47
2022/08/18 04:26:39;;;;;;;10.20;6.13;;;17.70;99.90;;;;;;5007558;28;20050;-47
2022/08/18 04:29:08;;;;;;;9.55;5.68;;;17.70;99.90;;;;;;5002923;28;20053;-46
2022/08/18 04:31:35;;;;;;;7.22;5.25;;;17.70;99.90;;;;;;5003277;28;20054;-46
2022/08/18 04:34:03;;;;;;;8.85;6.07;;;17.80;99.90;;;;;;5003464;28;20049;-46
2022/08/18 04:36:33;;;;;;;9.82;5.90;;;17.80;99.90;;;;;;5014612;28;20037;-46
2022/08/18 04:39:02;;;;;;;7.63;5.40;;;17.80;99.90;;;;;;5009417;28;20044;-47
2022/08/18 04:41:29;;;;;;;9.70;5.82;;;17.90;99.90;;;;;;5006058;28;20042;-46
2022/08/18 04:43:57;;;;;;;10.40;6.13;;;18.00;99.90;;;;;;5006381;28;20042;-46
2022/08/18 04:46:26;;;;;;;7.10;5.93;;;18.10;99.90;;;;;;5012405;28;20056;-46
2022/08/18 04:49:00;;;;;;;8.63;5.57;;;18.20;99.90;;;;;;5010431;28;20056;-46
2022/08/18 04:51:28;;;;;;;9.65;5.68;;;18.30;99.90;;;;;;5012331;28;20057;-46
2022/08/18 04:54:15;;;;;;;;;;;18.30;99.90;;;;;;5004061;28;20050;-47
2022/08/18 04:56:42;;;;;;;9.10;5.65;;;18.30;99.90;;;;;;5004343;28;19925;-46
2022/08/18 04:59:11;;;;;;;8.82;5.97;;;18.40;99.90;;;;;;5016268;28;20050;-46
2022/08/18 05:01:46;;;;;;;13.60;6.10;;;18.30;99.90;;;;;;5007442;28;20042;-48
2022/08/18 05:04:15;;;;;;;8.00;5.47;;;18.40;99.90;;;;;;5001895;28;20070;-46
2022/08/18 05:06:43;;;;;;;8.48;5.68;;;18.40;99.90;;;;;;5006380;28;20130;-46
2022/08/18 05:09:12;;;;;;;9.00;6.15;;;18.50;99.90;;;;;;5011393;28;20046;-46
2022/08/18 05:11:49;;;;;;;7.07;5.70;;;18.60;99.90;;;;;;5000859;28;20057;-47
2022/08/18 05:14:17;;;;;;;8.45;6.78;;;18.60;99.90;;;;;;5003611;28;20139;-47
2022/08/18 05:16:44;;;;;;;12.57;8.30;;;18.60;99.90;;;;;;5011876;28;20050;-47
2022/08/18 05:19:21;;;;;;;10.77;7.05;;;18.50;99.90;;;;;;5003460;28;20434;-47
2022/08/18 05:21:54;;;;;;;12.10;7.00;;;18.40;99.90;;;;;;5009475;28;20045;-47
2022/08/18 05:24:28;;;;;;;9.30;6.20;;;18.30;99.90;;;;;;5009912;28;20076;-47
2022/08/18 05:27:04;;;;;;;12.00;6.90;;;18.30;99.90;;;;;;5011473;28;20037;-46
2022/08/18 05:29:37;;;;;;;9.60;6.63;;;18.50;99.90;;;;;;5010086;28;20046;-46
2022/08/18 05:32:11;;;;;;;13.32;6.60;;;18.60;99.90;;;;;;5008263;28;20528;-46
2022/08/18 05:35:01;;;;;;;9.20;6.90;;;18.70;99.90;;;;;;5011394;28;20069;-47
2022/08/18 05:38:02;;;;;;;13.07;6.85;;;18.90;99.90;;;;;;5003120;28;20490;-46
2022/08/18 05:40:30;;;;;;;11.27;7.38;;;18.90;99.90;;;;;;4951350;28;20051;-46
2022/08/18 05:42:58;;;;;;;13.02;6.85;;;19.00;99.90;;;;;;5009796;28;20044;-47
2022/08/18 05:45:25;;;;;;;14.02;7.40;;;19.00;99.90;;;;;;5010628;28;20080;-46
2022/08/18 05:47:58;;;;;;;9.90;7.28;;;19.00;99.90;;;;;;4999094;28;20054;-46
2022/08/18 05:50:26;;;;;;;12.57;7.68;;;19.00;99.90;;;;;;5002418;28;20038;-46
2022/08/18 05:53:05;;;;;;;17.98;8.00;;;19.00;99.90;;;;;;5016326;28;20053;-46
2022/08/18 05:58:51;;;;;;;10.48;7.30;;;19.00;99.90;;;;;;4999623;28;20053;-46
2022/08/18 06:01:25;;;;;;;11.80;7.20;;;19.00;99.90;;;;;;5018704;28;20042;-46
2022/08/18 06:03:59;;;;;;;12.40;7.63;;;19.00;99.90;;;;;;5006414;28;20057;-46
2022/08/18 06:06:29;;;;;;;11.60;7.55;;;19.00;99.90;;;;;;5000532;28;20541;-47
2022/08/18 06:09:08;;;;;;;12.82;7.32;;;19.10;99.90;;;;;;5002479;28;20239;-46
2022/08/18 06:11:35;;;;;;;13.20;6.97;;;19.10;99.90;;;;;;5014168;28;20053;-46
2022/08/18 06:14:01;;;;;;;11.00;7.80;;;19.20;99.90;;;;;;5010682;28;20041;-46
2022/08/18 06:16:41;;;;;;;15.55;7.97;;;19.20;99.90;;;;;;5011403;28;20049;-46
2022/08/18 06:19:48;;;;;;;10.80;7.63;;;19.30;99.90;;;;;;5010723;28;20038;-46
2022/08/18 06:22:35;;;;;;;11.23;7.22;;;19.40;99.90;;;;;;5008931;28;20046;-46
2022/08/18 06:25:36;;;;;;;11.02;7.40;;;19.40;99.90;;;;;;5008883;28;20046;-46
2022/08/18 06:28:07;;;;;;;11.27;7.47;;;19.40;99.90;;;;;;5011088;28;20058;-46
2022/08/18 06:30:40;;;;;;;8.38;6.88;;;19.30;99.90;;;;;;5019154;28;20073;-46
2022/08/18 06:33:49;;;;;;;11.30;8.27;;;19.20;99.90;;;;;;5011252;28;20357;-46
2022/08/18 06:36:51;;;;;;;17.03;9.17;;;19.00;99.90;;;;;;5010515;28;20505;-47
2022/08/18 06:39:33;;;;;;;13.05;8.38;;;18.80;99.90;;;;;;5006354;28;20432;-46
2022/08/18 06:42:00;;;;;;;20.00;9.50;;;18.70;99.90;;;;;;5029001;28;20414;-46
2022/08/18 06:44:32;;;;;;;10.45;8.00;;;18.60;99.90;;;;;;5064792;22;20472;-46
2022/08/18 06:47:27;;;;;;;15.48;9.15;;;18.60;99.90;;;;;;5098265;28;20036;-45
2022/08/18 06:50:16;;;;;;;11.77;7.80;;;18.70;99.90;;;;;;5085299;28;20554;-45
2022/08/18 06:53:13;;;;;;;12.60;8.00;;;18.80;99.90;;;;;;5094500;28;20041;-45
2022/08/18 06:55:53;;;;;;;12.35;7.35;;;18.90;99.90;;;;;;5078313;28;20075;-46
2022/08/18 06:58:29;;;;;;;16.05;7.95;;;19.00;99.90;;;;;;5090631;28;20518;-48
2022/08/18 07:01:03;;;;;;;8.50;6.50;;;19.20;99.90;;;;;;5086819;28;20048;-46
2022/08/18 07:03:33;;;;;;;10.43;6.70;;;19.30;99.90;;;;;;5082093;28;20484;-47
2022/08/18 07:06:06;;;;;;;11.73;6.90;;;19.40;99.90;;;;;;5090951;28;20040;-46
2022/08/18 07:08:39;;;;;;;12.18;6.75;;;19.50;99.90;;;;;;5084172;28;20040;-46
2022/08/18 07:11:26;;;;;;;10.23;6.60;;;19.60;99.90;;;;;;5090600;28;20040;-45
2022/08/18 07:13:57;;;;;;;12.98;6.85;;;19.80;99.90;;;;;;5089404;28;20047;-46
2022/08/18 07:16:42;;;;;;;12.18;6.78;;;19.90;99.90;;;;;;5090242;28;20054;-46
2022/08/18 07:19:30;;;;;;;10.07;7.10;;;19.80;99.90;;;;;;5092314;28;20051;-45
2022/08/18 07:22:05;;;;;;;11.40;6.82;;;19.80;99.90;;;;;;5090675;28;20093;-46
2022/08/18 07:24:47;;;;;;;11.40;6.07;;;19.80;99.90;;;;;;5086997;28;20040;-45
2022/08/18 07:27:19;;;;;;;8.55;6.07;;;19.70;99.90;;;;;;5094832;28;20044;-46
2022/08/18 07:30:28;;;;;;;9.32;6.05;;;19.70;99.90;;;;;;5093266;28;20040;-46
2022/08/18 07:33:03;;;;;;;8.15;5.82;;;19.70;99.90;;;;;;5079131;28;20063;-45
2022/08/18 07:35:47;;;;;;;12.77;6.50;;;19.60;99.90;;;;;;5093375;28;20400;-46
2022/08/18 07:38:32;;;;;;;10.65;5.53;;;19.60;99.90;;;;;;5094069;28;20585;-46
2022/08/18 07:41:12;;;;;;;7.57;5.57;;;19.50;99.90;;;;;;5090447;28;20044;-46
2022/08/18 07:43:59;;;;;;;7.68;4.97;;;19.40;99.90;;;;;;5091585;28;20089;-46
2022/08/18 07:46:43;;;;;;;8.77;5.50;;;19.50;99.90;;;;;;5093592;28;20322;-45
2022/08/18 07:49:18;;;;;;;6.47;5.22;;;19.60;99.90;;;;;;5094005;28;20719;-45
2022/08/18 07:52:11;;;;;;;;;;;19.60;99.90;;;;;;5086739;28;20048;-45
2022/08/18 07:55:09;;;;;;;6.70;4.85;;;19.80;99.90;;;;;;5093180;28;19924;-45
2022/08/18 07:58:13;;;;;;;11.50;5.80;;;20.10;99.90;;;;;;5093609;28;20093;-46
2022/08/18 08:00:49;;;;;;;7.30;4.75;;;20.30;99.90;;;;;;5088287;28;20049;-45
2022/08/18 08:03:59;;;;;;;8.85;5.57;;;20.40;99.90;;;;;;5093000;28;20044;-46
2022/08/18 08:06:30;;;;;;;9.43;4.55;;;20.60;99.90;;;;;;5093170;28;20480;-45
2022/08/18 08:09:09;;;;;;;6.35;5.00;;;20.90;99.90;;;;;;5087418;28;20540;-46
2022/08/18 08:11:45;;;;;;;7.43;5.18;;;21.00;99.90;;;;;;5093367;28;20044;-45
2022/08/18 08:14:44;;;;;;;7.95;5.10;;;21.00;99.90;;;;;;5086620;28;20040;-46
2022/08/18 08:17:32;;;;;;;8.55;5.03;;;20.90;99.90;;;;;;5092720;28;20048;-46
2022/08/18 08:20:28;;;;;;;10.65;5.45;;;21.00;99.90;;;;;;5093218;28;20093;-46
2022/08/18 08:23:20;;;;;;;6.88;4.70;;;21.10;99.90;;;;;;5087430;28;20099;-45
2022/08/18 08:26:06;;;;;;;8.30;5.43;;;21.20;99.90;;;;;;5092688;28;20043;-46
2022/08/18 08:28:54;;;;;;;7.40;5.30;;;21.40;99.90;;;;;;5087911;28;20036;-45
2022/08/18 08:31:44;;;;;;;7.40;5.53;;;21.60;99.90;;;;;;5092492;28;20072;-45
2022/08/18 08:34:26;;;;;;;8.88;5.65;;;21.80;99.90;;;;;;5092455;28;20514;-45
2022/08/18 08:37:00;;;;;;;7.78;5.43;;;21.90;99.90;;;;;;5096607;28;20051;-45
2022/08/18 08:39:47;;;;;;;9.02;5.70;;;21.90;99.90;;;;;;5092442;28;20032;-45
2022/08/18 08:42:40;;;;;;;7.50;5.50;;;21.90;99.90;;;;;;5092719;28;20067;-46
2022/08/18 08:45:25;;;;;;;9.43;6.05;;;22.00;99.90;;;;;;5088862;28;20043;-46
2022/08/18 08:48:11;;;;;;;9.15;5.25;;;22.00;99.90;;;;;;5091568;28;20044;-46
2022/08/18 08:50:48;;;;;;;9.10;6.32;;;22.10;99.90;;;;;;5092881;28;20040;-46
2022/08/18 08:53:24;;;;;;;9.20;6.03;;;22.20;99.90;;;;;;5085379;28;20048;-45
2022/08/18 08:55:56;;;;;;;7.97;6.18;;;22.40;99.90;;;;;;5089134;28;20048;-45
2022/08/18 08:58:56;;;;;;;6.60;5.13;;;22.50;99.90;;;;;;5092372;28;20044;-48
2022/08/18 09:01:42;;;;;;;6.60;5.05;;;22.50;99.90;;;;;;5090271;28;20043;-46
2022/08/18 09:04:39;;;;;;;5.70;4.97;;;22.30;99.90;;;;;;5088022;28;20044;-45
2022/08/18 09:07:46;;;;;;;9.02;4.68;;;22.20;99.90;;;;;;5092174;28;20044;-49
2022/08/18 09:10:34;;;;;;;7.50;5.30;;;22.10;99.90;;;;;;5073759;28;20389;-46
2022/08/18 09:13:31;;;;;;;8.48;5.15;;;22.10;99.90;;;;;;5091325;28;20484;-45
2022/08/18 09:16:26;;;;;;;9.82;4.70;;;22.10;99.90;;;;;;5092101;28;20105;-47
2022/08/18 09:19:03;;;;;;;10.07;5.72;;;22.10;99.90;;;;;;5094047;28;20164;-46
2022/08/18 09:21:39;;;;;;;6.93;5.27;;;22.10;99.90;;;;;;5091986;28;20421;-45
2022/08/18 09:24:30;;;;;;;12.13;5.78;;;22.00;99.90;;;;;;5091412;28;20043;-46
2022/08/18 09:27:21;;;;;;;6.82;5.30;;;22.00;99.90;;;;;;5089663;28;20044;-46
2022/08/18 09:29:53;;;;;;;9.02;5.90;;;22.20;99.90;;;;;;5085975;28;20043;-45
2022/08/18 09:32:21;;;;;;;6.97;5.57;;;22.40;99.90;;;;;;5091064;28;20054;-47
2022/08/18 09:35:11;;;;;;;8.65;6.53;;;22.60;99.90;;;;;;5091482;28;20063;-46
2022/08/18 09:41:32;;;;;;;8.48;6.18;;;23.10;99.90;;;;;;5091798;28;20047;-46
2022/08/18 09:44:13;;;;;;;8.90;6.07;;;23.20;99.90;;;;;;5087372;28;20051;-46
2022/08/18 09:46:54;;;;;;;7.50;5.85;;;23.40;99.90;;;;;;5083598;28;20044;-46
2022/08/18 09:49:25;;;;;;;8.95;4.80;;;23.50;99.90;;;;;;5082101;28;20418;-46
2022/08/18 09:51:54;;;;;;;11.10;5.70;;;23.40;99.90;;;;;;5110391;28;20110;-45
2022/08/18 09:54:27;;;;;;;6.80;5.57;;;23.50;99.90;;;;;;5094575;28;20496;-46
2022/08/18 09:57:02;;;;;;;6.97;5.25;;;23.60;99.90;;;;;;5085748;28;20101;-46
2022/08/18 09:59:36;;;;;;;7.38;5.65;;;23.70;99.90;;;;;;5089893;28;20047;-45
2022/08/18 10:02:07;;;;;;;7.97;5.18;;;23.80;99.90;;;;;;5090921;28;20502;-46
2022/08/18 10:04:52;;;;;;;11.95;5.65;;;24.00;99.90;;;;;;5086951;28;20499;-46
2022/08/18 10:07:32;;;;;;;11.38;6.00;;;24.20;99.90;;;;;;5090480;28;20044;-46
2022/08/18 10:10:26;;;;;;;11.63;6.00;;;24.30;99.90;;;;;;5088344;28;20040;-46
2022/08/18 10:13:32;;;;;;;6.93;5.50;;;24.40;99.90;;;;;;5087054;28;20090;-46
2022/08/18 10:17:02;;;;;;;6.63;4.95;;;24.40;99.90;;;;;;5077836;28;20500;-46
2022/08/18 10:20:29;;;;;;;8.43;5.35;;;24.30;99.90;;;;;;4998939;28;20108;-46
2022/08/18 10:22:56;;;;;;;6.35;5.22;;;24.40;99.90;;;;;;5082151;28;20500;-46
2022/08/18 10:25:46;;;;;;;6.90;5.07;;;24.40;99.90;;;;;;5088916;28;20102;-46
2022/08/18 10:28:53;;;;;;;6.57;5.57;;;24.30;99.90;;;;;;5081913;28;20439;-46
2022/08/18 10:31:20;;;;;;;6.55;5.45;;;24.20;99.90;;;;;;5090536;28;20043;-46
2022/08/18 10:33:58;;;;;;;7.78;5.50;;;24.20;99.90;;;;;;5089368;28;20381;-46
2022/08/18 10:36:44;;;;;;;7.53;5.28;;;24.10;99.90;;;;;;5092521;28;20105;-46
2022/08/18 10:39:19;;;;;;;6.22;4.72;;;23.90;99.90;;;;;;5084155;28;20048;-46
2022/08/18 10:41:56;;;;;;;8.70;5.50;;;23.90;99.90;;;;;;5087396;28;20048;-46
2022/08/18 10:44:45;;;;;;;6.25;5.20;;;23.90;99.90;;;;;;5068677;28;20052;-46
2022/08/18 10:47:28;;;;;;;7.40;5.30;;;23.90;99.90;;;;;;5087922;28;20415;-46
2022/08/18 10:50:05;;;;;;;8.85;5.68;;;24.00;99.90;;;;;;5090033;28;20074;-46
2022/08/18 10:52:41;;;;;;;7.65;5.28;;;24.10;99.90;;;;;;5090969;28;20040;-46
2022/08/18 10:55:28;;;;;;;10.93;5.97;;;24.20;99.90;;;;;;5098402;28;20499;-46
2022/08/18 10:58:33;;;;;;;6.13;5.30;;;24.30;99.90;;;;;;5088261;28;20063;-46
2022/08/18 11:01:09;;;;;;;8.50;5.60;;;24.60;99.90;;;;;;5094485;28;20052;-46
2022/08/18 11:04:01;;;;;;;6.15;5.40;;;24.60;99.90;;;;;;5094687;28;20042;-46
2022/08/18 11:06:52;;;;;;;8.95;5.50;;;24.80;99.90;;;;;;5091866;28;20093;-46
2022/08/18 11:09:28;;;;;;;8.73;5.10;;;24.80;99.90;;;;;;5092869;28;20043;-46
2022/08/18 11:11:58;;;;;;;9.60;5.82;;;25.00;99.90;;;;;;5094072;28;20040;-46
2022/08/18 11:15:05;;;;;;;7.60;5.47;;;25.20;99.90;;;;;;5094126;28;20082;-46
2022/08/18 11:18:18;;;;;;;7.53;5.00;;;25.10;99.90;;;;;;5087668;28;20450;-46
2022/08/18 11:20:45;;;;;;;7.15;5.22;;;25.20;99.90;;;;;;5093258;28;20495;-46
2022/08/18 11:23:32;;;;;;;7.45;4.97;;;25.30;99.90;;;;;;5078228;28;20043;-46
2022/08/18 11:26:16;;;;;;;5.70;5.07;;;25.10;99.90;;;;;;5093395;28;20051;-46
2022/08/18 11:28:45;;;;;;;12.43;5.45;;;25.00;99.90;;;;;;5093727;28;20044;-46
2022/08/18 11:31:12;;;;;;;;;;;24.90;99.90;;;;;;5093954;28;20097;-46
2022/08/18 11:33:40;;;;;;;9.30;5.47;;;24.80;99.90;;;;;;5093516;28;19920;-47
2022/08/18 11:36:08;;;;;;;7.65;4.90;;;24.80;99.90;;;;;;5092205;28;20048;-46
2022/08/18 11:38:36;;;;;;;6.45;4.95;;;24.80;99.90;;;;;;5093817;28;20052;-46
2022/08/18 11:41:15;;;;;;;8.75;5.70;;;24.90;99.90;;;;;;5075003;28;20453;-45
2022/08/18 11:43:44;;;;;;;9.15;5.28;;;25.30;99.90;;;;;;5093401;28;20048;-46
2022/08/18 11:46:40;;;;;;;7.82;4.82;;;25.80;99.90;;;;;;5093212;28;20040;-46
2022/08/18 11:49:19;;;;;;;8.15;5.57;;;26.30;99.90;;;;;;5090202;28;20072;-47
2022/08/18 11:52:18;;;;;;;6.72;5.40;;;26.20;99.90;;;;;;5093902;28;20488;-47
2022/08/18 11:55:18;;;;;;;7.45;5.80;;;25.90;99.90;;;;;;5093170;28;20047;-47
2022/08/18 11:57:53;;;;;;;10.45;5.75;;;25.60;99.90;;;;;;5087436;28;20052;-46
2022/08/18 12:00:40;;;;;;;5.85;5.13;;;25.60;99.90;;;;;;5092665;28;20044;-46
2022/08/18 12:03:47;;;;;;;6.45;5.18;;;25.70;99.90;;;;;;5093188;28;20110;-45
2022/08/18 12:06:28;;;;;;;6.75;5.10;;;25.60;99.90;;;;;;5093546;28;20059;-46
2022/08/18 12:09:04;;;;;;;7.40;5.13;;;25.60;99.90;;;;;;5089918;28;20063;-47
2022/08/18 12:11:34;;;;;;;8.25;5.60;;;25.60;99.90;;;;;;5093672;28;20495;-46
2022/08/18 12:14:15;;;;;;;8.57;5.30;;;25.60;99.90;;;;;;5090267;28;20052;-46
2022/08/18 12:17:06;;;;;;;5.75;5.15;;;25.60;99.90;;;;;;5092848;28;20666;-46
2022/08/18 12:19:33;;;;;;;7.13;5.43;;;25.60;99.90;;;;;;5093345;28;20463;-46
2022/08/18 12:22:12;;;;;;;6.80;5.30;;;25.50;99.90;;;;;;5093163;28;20044;-46
2022/08/18 12:24:40;;;;;;;6.18;5.22;;;25.30;99.90;;;;;;5089843;28;20130;-46
2022/08/18 12:27:07;;;;;;;9.65;5.65;;;25.10;99.90;;;;;;5112430;28;20043;-46
2022/08/18 12:29:46;;;;;;;6.97;5.50;;;25.00;99.90;;;;;;5094460;28;20055;-46
2022/08/18 12:32:15;;;;;;;6.63;5.50;;;24.70;99.90;;;;;;5078198;28;20508;-46
2022/08/18 12:35:04;;;;;;;9.90;5.75;;;24.60;99.90;;;;;;5089279;28;20040;-46
2022/08/18 12:37:37;;;;;;;6.20;5.43;;;24.30;99.90;;;;;;5091299;28;20093;-46
2022/08/18 12:40:24;;;;;;;10.27;6.05;;;24.30;99.90;;;;;;5092632;28;20056;-46
2022/08/18 12:42:52;;;;;;;10.05;6.25;;;24.20;99.90;;;;;;5086285;28;20509;-43
2022/08/18 12:45:22;;;;;;;9.88;6.03;;;24.10;99.90;;;;;;5068882;22;20045;-46
2022/08/18 12:47:50;;;;;;;8.02;5.93;;;24.10;99.90;;;;;;5046841;28;20041;-46
2022/08/18 12:50:18;;;;;;;9.18;6.63;;;24.00;99.90;;;;;;5050623;28;20040;-46
2022/08/18 12:52:45;;;;;;;;;;;23.80;99.90;;;;;;5046337;28;20044;-46
2022/08/18 12:55:13;;;;;;;7.72;5.97;;;23.80;99.90;;;;;;5043420;28;19950;-47
2022/08/18 12:57:48;;;;;;;11.18;6.47;;;23.70;99.90;;;;;;5046409;28;20045;-47
2022/08/18 13:00:20;;;;;;;8.63;6.13;;;23.60;99.90;;;;;;5052315;28;20481;-46
2022/08/18 13:02:54;;;;;;;8.30;5.45;;;23.70;99.90;;;;;;5032147;28;20049;-47
2022/08/18 13:05:23;;;;;;;11.40;5.72;;;23.70;99.90;;;;;;5031522;28;20045;-47
2022/08/18 13:08:01;;;;;;;10.18;5.22;;;23.80;99.90;;;;;;5030526;28;20073;-46
2022/08/18 13:10:32;;;;;;;11.73;5.80;;;23.90;99.90;;;;;;5031612;28;20045;-46
2022/08/18 13:13:13;;;;;;;7.78;5.55;;;24.00;99.90;;;;;;5031471;28;20457;-47
2022/08/18 13:15:40;;;;;;;7.40;5.57;;;24.10;99.90;;;;;;5031826;28;20061;-47
2022/08/18 13:18:24;;;;;;;8.70;5.93;;;24.20;99.90;;;;;;5033992;28;20051;-46
2022/08/18 13:20:54;;;;;;;9.35;5.63;;;24.10;99.90;;;;;;5043262;28;20037;-47
2022/08/18 13:23:22;;;;;;;8.10;5.93;;;24.10;99.90;;;;;;5045363;28;20503;-46
2022/08/18 13:25:51;;;;;;;7.68;5.78;;;24.00;99.90;;;;;;5031396;28;20063;-46
2022/08/18 13:28:31;;;;;;;10.35;6.25;;;23.90;99.90;;;;;;5030439;28;20397;-45
2022/08/18 13:31:03;;;;;;;8.20;6.05;;;23.90;99.90;;;;;;5031766;28;20467;-46
2022/08/18 13:33:31;;;;;;;9.60;6.38;;;23.80;99.90;;;;;;5030561;28;20037;-46
2022/08/18 13:36:07;;;;;;;11.48;7.13;;;23.80;99.90;;;;;;5032058;28;20378;-45
2022/08/18 13:38:34;;;;;;;12.73;6.97;;;23.80;99.90;;;;;;5038879;28;20037;-46
2022/08/18 13:41:07;;;;;;;11.23;7.10;;;23.70;99.90;;;;;;5030180;28;20045;-46
2022/08/18 13:43:37;;;;;;;8.27;6.28;;;23.70;99.90;;;;;;5031063;28;20041;-46
2022/08/18 13:46:06;;;;;;;12.23;7.20;;;23.70;99.90;;;;;;5030332;28;20050;-46
2022/08/18 13:48:34;;;;;;;11.18;7.03;;;23.70;99.90;;;;;;5023943;28;20560;-46
2022/08/18 13:51:02;;;;;;;11.25;7.85;;;23.60;99.90;;;;;;5030627;28;20041;-46